Natalie, Pennsylvania
Current Conditions -  °F | °C
As of 4:53 AM on Saturday 20 Dec 2014 (Local Time) from KSEG Reporting Station
Overcast Overcast  
Wind Chill: 25°   Ceiling: 3100
Heat Index: 30°   Visibility: 10mi
Dew Point: 19°   Wind: 5mph
Humidity: 64%   Direction: 290°WNW
Pressure: 30.26"   Gusts: NA
Location:  40.7952°N, 76.4365°W
Report Text: KSEG 200953Z AUTO 29004KT 10SM OVC031 M01/M07 A3026 RMK AO2 SLP252 T10111072
Loading
Personal Weather Stations






























Interactive Weather Map New forecast layout! Learn more

10-Day Weather Forecast

Advertisements
Track Severe Weather on mobile